Аэропорт
Хомутово (UHSS)

 UHSS / UUS
ЗЦ Хабаровск
Хабаровск (UHHH)
Хабаровск (UHHH)
 46.88870, 142.71800  / 59 ft

 TAF UHSS 050750Z 0509/0615 36003MPS 9999 BKN015CB TEMPO 0509/0606 -SHRA
UHSS_j_0220
показать схемы
Название сценария Тип сценария Flight Simulator 9 Flight Simulator X Prepar3D v2 Prepar3D v3 Prepar3D v4 xPlane
FSX-UHSS-2015 бесплатный
P3D-UHSS-2015 бесплатный
UHSS P3Dv4 бесплатный
UHSS-FS9 бесплатный
UHSS_XPL бесплатный

Аэропорт Южно-Сахалинск имени Антона Чехова или Хомутово (IATA: UUS, ICAO: UHSS) — международный аэропорт федерального значения Южно-Сахалинска, расположенный в десяти километрах от центра города, в планировочном районе Южно-Сахалинска Хомутово.

Размеры (м) ИВПП 01/19 3400x60 Покрытие полимерный асфальтбетон. Классификационное число ВПП (PCN) 43/R/A/X/T.

 

 



2020 © VATRUS division (Privacy Policy)